Flight Track Log - Related Links

Times and Time Zones

All times are in EDT time to prevent confusion due to time zone crossing. See the MTN8474 flight status page for this flight to view local times or setup timezone preferences in your user account.

Time Position Orientation Groundspeed Altitude Reporting Facility
EDT Latitude Longitude Course Direction KTS MPH feet Rate Location/Type
Sat 06:52:09 AM 39.8181 -82.9242 225° Southwest 82 94 900  Level Indianapolis Center
Sat 06:53:09 AM 39.8011 -82.9461 225° Southwest 87 100 1,600 843 Climbing Indianapolis Center
Sat 06:54:10 AM 39.7797 -82.9725 223° Southwest 105 121 2,600 952 Climbing Indianapolis Center
Sat 06:54:12 AM 39.7800 -82.9708 78° East 96 110 2,600 800 Level Indianapolis Center
Sat 06:55:10 AM 39.7558 -82.9822 200° South 116 133 3,400 590 Climbing Indianapolis Center
Sat 06:55:13 AM 39.7500 -82.9861 207° Southwest 106 122 3,200 787 Descending Indianapolis Center
Sat 06:56:11 AM 39.7447 -82.9450 99° East 104 120 4,200 1,000 Climbing Indianapolis Center
Sat 06:56:13 AM 39.7456 -82.9469 299° West 108 124 4,200 787 Level Indianapolis Center
Sat 06:57:12 AM 39.7356 -82.9083 109° East 108 124 5,000 787 Climbing Indianapolis Center
Sat 06:57:14 AM 39.7361 -82.9094 303° West 109 125 5,000 800 Level Indianapolis Center
Sat 06:58:12 AM 39.7283 -82.8717 105° East 110 127 5,800 689 Climbing Indianapolis Center
Sat 06:58:15 AM 39.7292 -82.8728 314° West 109 125 5,700 885 Descending Indianapolis Center
Sat 06:59:13 AM 39.7194 -82.8322 107° East 113 130 6,700 900 Climbing Indianapolis Center
Sat 06:59:15 AM 39.7214 -82.8325 354° North 112 129 6,600 393 Descending Indianapolis Center
Sat 07:00:14 AM 39.7089 -82.7897 111° Southeast 118 136 7,100 590 Climbing Indianapolis Center
Sat 07:00:16 AM 39.7097 -82.7919 296° West 115 132 7,200 -100 Climbing Indianapolis Center
Sat 07:01:14 AM 39.6947 -82.7386 110° East 155 178 7,000 -100 Descending Indianapolis Center
Sat 07:01:16 AM 39.6953 -82.7408 288° West 142 163 7,100  Climbing Indianapolis Center
Sat 07:02:15 AM 39.6803 -82.6903 111° Southeast 151 174 7,000  Descending Indianapolis Center
Sat 07:02:17 AM 39.6817 -82.6897 17° North 150 173 7,100  Climbing Indianapolis Center
Sat 07:03:15 AM 39.6664 -82.6364 110° East 149 171 7,000  Descending Indianapolis Center
Sat 07:03:18 AM 39.6711 -82.6392 336° Northwest 151 174 7,100 95 Climbing Indianapolis Center
Sat 07:04:18 AM 39.6539 -82.5903 115° Southeast 148 170 7,100  Level Indianapolis Center
Sat 07:05:19 AM 39.6408 -82.5408 109° East 146 168 7,100  Level Indianapolis Center
Sat 07:06:20 AM 39.6289 -82.4903 107° East 146 168 7,100  Level Indianapolis Center
Sat 07:07:20 AM 39.6164 -82.4386 107° East 149 171 7,100  Level Indianapolis Center
Sat 07:08:21 AM 39.6033 -82.3900 109° East 146 168 7,100  Level Indianapolis Center
Sat 07:09:22 AM 39.5894 -82.3278 106° East 149 171 7,100  Level Indianapolis Center
Sat 07:10:22 AM 39.5792 -82.2772 105° East 148 170 7,100  Level Indianapolis Center
Sat 07:11:23 AM 39.5667 -82.2325 110° East 137 158 7,100  Level Indianapolis Center
Sat 07:12:24 AM 39.5564 -82.1928 109° East 125 144 7,100  Level Indianapolis Center
Sat 07:13:24 AM 39.5453 -82.1506 109° East 123 142 7,100  Level Indianapolis Center
Sat 07:14:25 AM 39.5347 -82.1083 108° East 123 142 7,100  Level Indianapolis Center
Sat 07:15:26 AM 39.5228 -82.0669 111° Southeast 123 142 7,100  Level Indianapolis Center
Sat 07:16:27 AM 39.5114 -82.0256 110° East 122 140 7,100  Level Indianapolis Center
Sat 07:17:27 AM 39.5000 -81.9833 109° East 123 142 7,100  Level Indianapolis Center
Sat 07:18:28 AM 39.4861 -81.9453 115° Southeast 122 140 7,100  Level Indianapolis Center
Sat 07:19:29 AM 39.4742 -81.9089 113° Southeast 116 133 7,100  Level Indianapolis Center
Sat 07:20:30 AM 39.4633 -81.8703 110° East 113 130 7,100  Level Indianapolis Center
Sat 07:21:30 AM 39.4533 -81.8314 108° East 113 130 7,100  Level Indianapolis Center
Sat 07:22:31 AM 39.4414 -81.7911 111° Southeast 117 135 7,100  Level Indianapolis Center
Sat 07:23:32 AM 39.4308 -81.7528 110° East 115 132 7,100 -197 Level Indianapolis Center
Sat 07:24:33 AM 39.4206 -81.7122 108° East 117 135 6,700 -443 Descending Indianapolis Center
Sat 07:25:34 AM 39.4097 -81.6742 110° East 114 131 6,200 -298 Descending Indianapolis Center
Sat 07:26:34 AM 39.3931 -81.6406 123° Southeast 112 129 6,100 -50 Descending Indianapolis Center
Sat 07:27:35 AM 39.3692 -81.6169 143° Southeast 110 127 6,100  Level Indianapolis Center
Sat 07:28:36 AM 39.3414 -81.5856 139° Southeast 110 127 6,100  Level Indianapolis Center
Sat 07:29:37 AM 39.3194 -81.5594 137° Southeast 109 125 6,100  Level Indianapolis Center
Sat 07:30:38 AM 39.2967 -81.5331 138° Southeast 109 125 6,100  Level Indianapolis Center
Sat 07:31:38 AM 39.2733 -81.5072 139° Southeast 110 127 6,100  Level Indianapolis Center
Sat 07:32:39 AM 39.2511 -81.4797 136° Southeast 110 127 6,100  Level Indianapolis Center
Sat 07:33:40 AM 39.2292 -81.4544 138° Southeast 108 124 6,100  Level Indianapolis Center
Sat 07:34:41 AM 39.1981 -81.4625 191° South 118 136 6,100  Level Indianapolis Center
Sat 07:35:42 AM 39.1653 -81.4756 197° South 122 140 6,100  Level Indianapolis Center
Sat 07:36:43 AM 39.1347 -81.4867 196° South 117 135 6,100  Level Indianapolis Center
Sat 07:37:43 AM 39.1022 -81.5006 198° South 120 138 6,100  Level Indianapolis Center
Sat 07:38:44 AM 39.0778 -81.5247 218° Southwest 130 150 6,100  Level Indianapolis Center
Sat 07:39:45 AM 39.1053 -81.5431 333° Northwest 115 132 6,100  Level Indianapolis Center
Sat 07:40:46 AM 39.1386 -81.5406 North 117 135 6,100  Level Indianapolis Center
Sat 07:41:47 AM 39.1672 -81.5242 24° Northeast 113 130 6,100  Level Indianapolis Center
Sat 07:42:48 AM 39.1986 -81.5094 20° North 118 136 6,100  Level Indianapolis Center
Sat 07:43:48 AM 39.2297 -81.4950 20° North 118 136 6,100  Level Indianapolis Center
Sat 07:44:49 AM 39.2611 -81.4792 21° North 119 137 6,100  Level Indianapolis Center
Sat 07:45:50 AM 39.2644 -81.4525 81° East 126 145 6,100  Level Indianapolis Center
Sat 07:46:51 AM 39.2342 -81.4667 200° South 119 137 6,100  Level Indianapolis Center
Sat 07:47:52 AM 39.1956 -81.4864 202° Southwest 122 140 6,100  Level Indianapolis Center
Sat 07:48:52 AM 39.1639 -81.4986 197° South 120 138 6,100  Level Indianapolis Center
Sat 07:49:53 AM 39.1319 -81.5014 184° South 114 131 6,100  Level Indianapolis Center
Sat 07:50:54 AM 39.1008 -81.5136 197° South 117 135 6,100  Level Indianapolis Center
Sat 07:51:55 AM 39.0736 -81.5358 212° Southwest 128 147 6,100  Level Indianapolis Center
Sat 07:52:56 AM 39.1022 -81.5544 333° Northwest 121 139 6,100  Level Indianapolis Center
Sat 07:53:57 AM 39.1319 -81.5406 20° North 113 130 6,100  Level Indianapolis Center
Sat 07:54:57 AM 39.1636 -81.5261 19° North 118 136 6,100  Level Indianapolis Center
Sat 07:55:58 AM 39.1947 -81.5117 20° North 119 137 6,100  Level Indianapolis Center
Sat 07:56:59 AM 39.2278 -81.4964 20° North 124 143 6,100  Level Indianapolis Center
Sat 07:58:00 AM 39.2581 -81.4803 22° Northeast 120 138 6,100  Level Indianapolis Center
Sat 07:59:01 AM 39.2500 -81.4578 115° Southeast 127 146 6,100  Level Indianapolis Center
Sat 08:00:02 AM 39.2214 -81.4758 206° Southwest 113 130 6,100  Level Indianapolis Center
Sat 08:01:03 AM 39.1892 -81.4897 198° South 120 138 6,100  Level Indianapolis Center
Sat 08:02:03 AM 39.1586 -81.5028 198° South 117 135 6,100  Level Indianapolis Center
Sat 08:03:04 AM 39.1264 -81.5156 197° South 119 137 6,100  Level Indianapolis Center
Sat 08:04:05 AM 39.0958 -81.5311 202° Southwest 118 136 6,100  Level Indianapolis Center
Sat 08:05:06 AM 39.0897 -81.5667 258° West 130 150 6,100  Level Indianapolis Center
Sat 08:06:07 AM 39.1178 -81.5561 16° North 114 131 6,100  Level Indianapolis Center
Sat 08:07:08 AM 39.1464 -81.5356 29° Northeast 115 132 6,100  Level Indianapolis Center
Sat 08:08:09 AM 39.1781 -81.5208 20° North 119 137 6,100  Level Indianapolis Center
Sat 08:09:10 AM 39.2106 -81.5058 20° North 122 140 6,100  Level Indianapolis Center
Sat 08:10:11 AM 39.2419 -81.4886 23° Northeast 123 142 6,100  Level Indianapolis Center
Sat 08:11:12 AM 39.2725 -81.4753 19° North 118 136 6,100  Level Indianapolis Center
Sat 08:12:13 AM 39.2567 -81.4611 145° Southeast 120 138 6,100  Level Indianapolis Center
Sat 08:13:14 AM 39.2239 -81.4747 198° South 120 138 6,100  Level Indianapolis Center
Sat 08:14:15 AM 39.1925 -81.4883 199° South 120 138 6,100  Level Indianapolis Center
Sat 08:15:16 AM 39.1606 -81.5031 200° South 122 140 6,100  Level Indianapolis Center
Sat 08:16:17 AM 39.1283 -81.5161 197° South 121 139 6,100  Level Indianapolis Center
Sat 08:17:18 AM 39.0967 -81.5275 196° South 120 138 6,100  Level Indianapolis Center
Sat 08:18:18 AM 39.0836 -81.5583 241° Southwest 132 152 6,100  Level Indianapolis Center
Sat 08:19:19 AM 39.1150 -81.5542 North 126 145 6,100  Level Indianapolis Center
Sat 08:20:20 AM 39.1508 -81.5344 23° Northeast 117 135 6,100  Level Indianapolis Center
Sat 08:21:21 AM 39.1822 -81.5189 21° North 120 138 6,100  Level Indianapolis Center
Sat 08:22:22 AM 39.2106 -81.4975 30° Northeast 119 137 6,100  Level Indianapolis Center
Sat 08:23:23 AM 39.2439 -81.4858 15° North 121 139 6,100 -49 Level Indianapolis Center
Sat 08:24:24 AM 39.2653 -81.4625 40° Northeast 125 144 6,000  Descending Indianapolis Center
Sat 08:25:25 AM 39.2361 -81.4661 185° South 120 138 6,100 49 Climbing Indianapolis Center
Sat 08:26:27 AM 39.2056 -81.4803 200° South 117 135 6,100  Level Indianapolis Center
Sat 08:27:28 AM 39.1728 -81.4936 198° South 120 138 6,100  Level Indianapolis Center
Sat 08:28:29 AM 39.1400 -81.5075 198° South 122 140 6,100  Level Indianapolis Center
Sat 08:29:30 AM 39.1092 -81.5219 200° South 121 139 6,100 -49 Level Indianapolis Center
Sat 08:30:31 AM 39.0783 -81.5406 205° Southwest 140 161 6,000  Descending Indianapolis Center
Sat 08:31:32 AM 39.1025 -81.5586 330° Northwest 121 139 6,100 49 Climbing Indianapolis Center
Sat 08:32:33 AM 39.1342 -81.5425 22° Northeast 120 138 6,100  Level Indianapolis Center
Sat 08:33:34 AM 39.1658 -81.5267 21° North 121 139 6,100  Level Indianapolis Center
Sat 08:34:35 AM 39.2039 -81.5089 20° North 121 139 6,100  Level Indianapolis Center
Sat 08:35:36 AM 39.2358 -81.4919 22° Northeast 123 142 6,100  Level Indianapolis Center
Sat 08:36:37 AM 39.2683 -81.4767 20° North 123 142 6,100  Level Indianapolis Center
Sat 08:37:39 AM 39.2506 -81.4606 145° Southeast 118 136 6,100  Level Indianapolis Center
Sat 08:38:40 AM 39.2175 -81.4744 198° South 123 142 6,100  Level Indianapolis Center
Sat 08:39:41 AM 39.1853 -81.4889 199° South 122 140 6,100  Level Indianapolis Center
Sat 08:40:42 AM 39.1533 -81.5022 198° South 121 139 6,100  Level Indianapolis Center
Sat 08:41:43 AM 39.1214 -81.5161 199° South 122 140 6,100  Level Indianapolis Center
Sat 08:42:45 AM 39.0883 -81.5300 198° South 123 142 6,100  Level Indianapolis Center
Sat 08:43:46 AM 39.0942 -81.5619 283° West 136 157 6,100  Level Indianapolis Center
Sat 08:44:47 AM 39.1258 -81.5472 20° North 120 138 6,100  Level Indianapolis Center
Sat 08:45:48 AM 39.1572 -81.5306 22° Northeast 122 140 6,100  Level Indianapolis Center
Sat 08:46:50 AM 39.1961 -81.5114 21° North 123 142 6,100  Level Indianapolis Center
Sat 08:47:51 AM 39.2278 -81.4961 20° North 123 142 6,100  Level Indianapolis Center
Sat 08:48:52 AM 39.2600 -81.4797 21° North 123 142 6,100  Level Indianapolis Center
Sat 08:49:54 AM 39.2583 -81.4544 95° East 124 143 6,100  Level Indianapolis Center
Sat 08:50:55 AM 39.2281 -81.4692 201° Southwest 118 136 6,100  Level Indianapolis Center
Sat 08:51:56 AM 39.1953 -81.4842 200° South 122 140 6,100  Level Indianapolis Center
Sat 08:52:57 AM 39.1628 -81.4972 197° South 122 140 6,100  Level Indianapolis Center
Sat 08:53:59 AM 39.1317 -81.5103 198° South 119 137 6,100  Level Indianapolis Center
Sat 08:55:00 AM 39.0986 -81.5233 197° South 122 140 6,100  Level Indianapolis Center
Sat 08:56:01 AM 39.0817 -81.5536 234° Southwest 149 171 6,100  Level Indianapolis Center
Sat 08:57:03 AM 39.1217 -81.5494 North 123 142 6,100  Level Indianapolis Center
Sat 08:58:04 AM 39.1531 -81.5322 23° Northeast 121 139 6,100  Level Indianapolis Center
Sat 08:59:06 AM 39.1844 -81.5175 20° North 120 138 6,100  Level Indianapolis Center
Sat 09:00:07 AM 39.2172 -81.5014 21° North 124 143 6,100  Level Indianapolis Center
Sat 09:01:08 AM 39.2497 -81.4850 21° North 125 144 6,100  Level Indianapolis Center
Sat 09:02:10 AM 39.2694 -81.4606 44° Northeast 120 138 6,100  Level Indianapolis Center
Sat 09:03:11 AM 39.2378 -81.4639 185° South 132 152 6,100  Level Indianapolis Center
Sat 09:04:12 AM 39.2067 -81.4778 199° South 120 138 6,100  Level Indianapolis Center
Sat 09:05:14 AM 39.1747 -81.4928 200° South 122 140 6,100  Level Indianapolis Center
Sat 09:06:15 AM 39.1419 -81.5056 197° South 122 140 6,100  Level Indianapolis Center
Sat 09:07:17 AM 39.1028 -81.5217 198° South 122 140 6,100  Level Indianapolis Center
Sat 09:08:18 AM 39.0819 -81.5483 225° Southwest 132 152 6,100  Level Indianapolis Center
Sat 09:09:20 AM 39.1133 -81.5522 355° North 131 151 6,100 -49 Level Indianapolis Center
Sat 09:10:21 AM 39.1450 -81.5369 21° North 121 139 6,000 -634 Descending Indianapolis Center
Sat 09:11:23 AM 39.1761 -81.5219 20° North 120 138 4,800 -1,122 Descending Indianapolis Center
Sat 09:12:24 AM 39.2047 -81.5067 22° Northeast 116 133 3,700 -878 Descending Indianapolis Center
Sat 09:13:26 AM 39.2356 -81.4917 21° North 116 133 3,000 -634 Descending Indianapolis Center
Sat 09:14:27 AM 39.2664 -81.4767 21° North 117 135 2,400 -541 Descending Indianapolis Center
Sat 09:15:28 AM 39.2969 -81.4625 20° North 117 135 1,900 -492 Descending Indianapolis Center

Login

Don't have an account? Register now (free) for customized features, flight alerts, and more!